createdAt,value
2019-05-02T00:01:55.299Z,99545.07
2019-05-02T00:07:07.341Z,99542.75
2019-05-02T00:12:12.458Z,99545.95
2019-05-02T00:17:14.443Z,99541.09
2019-05-02T00:22:17.158Z,99536.08
2019-05-02T00:27:19.697Z,99529.41
2019-05-02T00:32:22.446Z,99524.89
2019-05-02T00:37:26.690Z,99522.48
2019-05-02T00:42:28.603Z,99526.17
2019-05-02T00:47:47.723Z,99523.15
2019-05-02T00:52:46.060Z,99522.39
2019-05-02T00:57:50.908Z,99518.94
2019-05-02T01:02:56.199Z,99517.75
2019-05-02T01:08:01.138Z,99511.39
2019-05-02T01:13:01.326Z,99503.93
2019-05-02T01:18:06.068Z,99504.13
2019-05-02T01:23:06.464Z,99500.52
2019-05-02T01:28:25.297Z,99502.70
2019-05-02T01:33:36.799Z,99496.48
2019-05-02T01:38:43.172Z,99490.58
2019-05-02T01:43:44.736Z,99495.66
2019-05-02T01:48:47.794Z,99489.78
2019-05-02T01:53:49.508Z,99482.91
2019-05-02T01:58:53.068Z,99472.94
2019-05-02T02:03:54.920Z,99471.39
2019-05-02T02:08:56.615Z,99470.23
2019-05-02T02:13:58.186Z,99460.81
2019-05-02T02:19:07.795Z,99462.53
2019-05-02T02:24:25.210Z,99463.73
2019-05-02T02:29:26.464Z,99459.63
2019-05-02T02:34:29.768Z,99462.58
2019-05-02T02:39:31.639Z,99461.90
2019-05-02T02:44:52.991Z,99457.31
2019-05-02T02:50:02.147Z,99457.47
2019-05-02T02:54:58.963Z,99456.95
2019-05-02T03:00:07.855Z,99460.70
2019-05-02T03:05:04.395Z,99457.27
2019-05-02T03:10:08.157Z,99462.73
2019-05-02T03:15:13.214Z,99461.78
2019-05-02T03:20:14.889Z,99453.67
2019-05-02T03:25:18.071Z,99455.55
2019-05-02T03:30:30.976Z,99460.41
2019-05-02T03:35:39.650Z,99460.90
2019-05-02T03:40:32.247Z,99455.86
2019-05-02T03:45:32.037Z,99458.56
2019-05-02T03:50:35.414Z,99455.78
2019-05-02T03:55:37.629Z,99452.06
2019-05-02T04:00:39.296Z,99460.23
2019-05-02T04:05:42.337Z,99465.40
2019-05-02T04:11:22.307Z,99467.42
2019-05-02T04:16:27.557Z,99458.59
2019-05-02T04:21:29.138Z,99463.56
2019-05-02T04:26:30.899Z,99465.08
2019-05-02T04:31:33.879Z,99461.29
2019-05-02T04:36:35.640Z,99460.42
2019-05-02T04:41:42.015Z,99455.32
2019-05-02T04:46:40.704Z,99462.38
2019-05-02T04:51:50.668Z,99474.58
2019-05-02T04:56:52.343Z,99465.75
2019-05-02T05:01:57.312Z,99467.58
2019-05-02T05:06:58.217Z,99460.80
2019-05-02T05:11:59.011Z,99468.16
2019-05-02T05:16:59.711Z,99470.50
2019-05-02T05:22:04.905Z,99466.45
2019-05-02T05:27:04.782Z,99464.70
2019-05-02T05:32:09.879Z,99466.75
2019-05-02T05:37:13.464Z,99468.95
2019-05-02T05:42:13.307Z,99468.73
2019-05-02T05:47:17.682Z,99471.72
2019-05-02T05:52:18.315Z,99473.52
2019-05-02T05:57:21.199Z,99476.50
2019-05-02T06:02:22.956Z,99468.41
2019-05-02T06:07:24.528Z,99474.13
2019-05-02T06:12:30.383Z,99476.38
2019-05-02T06:17:30.460Z,99466.97
2019-05-02T06:22:32.391Z,99470.56
2019-05-02T06:27:34.059Z,99461.80
2019-05-02T06:32:35.748Z,99458.02
2019-05-02T06:37:40.419Z,99464.44
2019-05-02T06:42:41.056Z,99470.02
2019-05-02T06:47:43.645Z,99461.48
2019-05-02T06:52:45.478Z,99465.97
2019-05-02T06:57:47.296Z,99462.03
2019-05-02T07:02:48.844Z,99458.69
2019-05-02T07:07:50.387Z,99464.08
2019-05-02T07:13:09.220Z,99454.99
2019-05-02T07:17:58.313Z,99452.77
2019-05-02T07:23:00.084Z,99452.70
2019-05-02T07:28:04.646Z,99444.71
2019-05-02T07:33:05.345Z,99455.81
2019-05-02T07:38:07.039Z,99449.88
2019-05-02T07:43:13.501Z,99453.83
2019-05-02T07:48:17.198Z,99451.83
2019-05-02T07:53:15.822Z,99456.83
2019-05-02T07:58:17.391Z,99456.91
2019-05-02T08:03:18.949Z,99447.37
2019-05-02T08:08:20.669Z,99448.69
2019-05-02T08:13:22.405Z,99443.66
2019-05-02T08:18:25.243Z,99446.61
2019-05-02T08:23:27.932Z,99446.77
2019-05-02T08:28:35.967Z,99444.09
2019-05-02T08:33:37.665Z,99446.08
2019-05-02T08:38:39.358Z,99439.73
2019-05-02T08:43:44.890Z,99443.16
2019-05-02T08:48:44.448Z,99447.45
2019-05-02T08:53:46.216Z,99445.28
2019-05-02T08:58:49.846Z,99433.64
2019-05-02T09:03:56.763Z,99428.93
2019-05-02T09:08:55.257Z,99424.66
2019-05-02T09:13:56.877Z,99422.63
2019-05-02T09:18:58.526Z,99420.13
2019-05-02T09:24:02.349Z,99413.45
2019-05-02T09:29:05.407Z,99411.27
2019-05-02T09:34:07.303Z,99397.25
2019-05-02T09:39:09.010Z,99394.02
2019-05-02T09:44:14.566Z,99400.60
2019-05-02T09:49:16.577Z,99396.73
2019-05-02T09:54:17.999Z,99388.30
2019-05-02T09:59:27.781Z,99383.09
2019-05-02T10:04:25.177Z,99386.42
2019-05-02T10:09:27.312Z,99381.80
2019-05-02T10:14:29.368Z,99373.16
2019-05-02T10:19:32.687Z,99372.06
2019-05-02T10:24:34.498Z,99351.98
2019-05-02T10:29:36.392Z,99350.98
2019-05-02T10:34:38.117Z,99362.52
2019-05-02T10:39:39.882Z,99339.92
2019-05-02T10:44:42.664Z,99331.42
2019-05-02T10:49:55.252Z,99329.71
2019-05-02T10:54:56.872Z,99327.16
2019-05-02T10:59:59.345Z,99323.80
2019-05-02T11:05:07.056Z,99321.36
2019-05-02T11:10:08.929Z,99305.50
2019-05-02T11:15:29.082Z,99304.27
2019-05-02T11:20:32.942Z,99300.16
2019-05-02T11:25:34.552Z,99297.91
2019-05-02T11:30:36.866Z,99296.13
2019-05-02T11:35:41.956Z,99294.28
2019-05-02T11:40:42.626Z,99286.00
2019-05-02T11:45:44.315Z,99290.06
2019-05-02T11:50:45.927Z,99275.49
2019-05-02T11:55:47.536Z,99276.48
2019-05-02T12:00:49.789Z,99267.80
2019-05-02T12:05:52.434Z,99273.44
2019-05-02T12:10:54.256Z,99282.31
2019-05-02T12:15:56.200Z,99272.33
2019-05-02T12:20:57.792Z,99275.77
2019-05-02T12:25:59.583Z,99268.45
2019-05-02T12:31:02.718Z,99264.48
2019-05-02T12:36:06.349Z,99267.39
2019-05-02T12:41:19.508Z,99264.59
2019-05-02T12:46:11.765Z,99267.66
2019-05-02T12:51:13.293Z,99260.17
2019-05-02T12:56:14.885Z,99260.11
2019-05-02T13:01:16.563Z,99268.36
2019-05-02T13:06:18.374Z,99255.74
2019-05-02T13:11:36.848Z,99251.38
2019-05-02T13:16:38.062Z,99245.09
2019-05-02T13:22:17.376Z,99253.29
2019-05-02T13:27:20.312Z,99251.56
2019-05-02T13:32:36.567Z,99256.16
2019-05-02T13:37:38.383Z,99250.92
2019-05-02T13:42:41.803Z,99242.45
2019-05-02T13:47:43.702Z,99240.46
2019-05-02T13:52:53.166Z,99243.78
2019-05-02T13:57:48.814Z,99246.91
2019-05-02T14:02:51.999Z,99243.46
2019-05-02T14:08:01.798Z,99249.95
2019-05-02T14:13:03.704Z,99245.93
2019-05-02T14:18:05.553Z,99252.44
2019-05-02T14:23:07.237Z,99237.85
2019-05-02T14:28:08.953Z,99242.59
2019-05-02T14:33:15.916Z,99247.07
2019-05-02T14:38:17.477Z,99228.70
2019-05-02T14:43:38.193Z,99227.08
2019-05-02T14:48:45.095Z,99212.27
2019-05-02T14:53:44.793Z,99217.35
2019-05-02T14:58:46.522Z,99207.80
2019-05-02T15:03:48.106Z,99207.96
2019-05-02T15:08:49.678Z,99203.36
2019-05-02T15:13:52.491Z,99189.93
2019-05-02T15:18:56.993Z,99191.20
2019-05-02T15:23:58.059Z,99184.13
2019-05-02T15:29:01.803Z,99187.05
2019-05-02T15:34:26.029Z,99183.91
2019-05-02T15:44:31.757Z,99169.44
2019-05-02T15:49:44.963Z,99165.86
2019-05-02T15:54:46.633Z,99155.84
2019-05-02T15:59:48.208Z,99153.84
2019-05-02T16:04:49.769Z,99151.64
2019-05-02T16:09:51.588Z,99143.83
2019-05-02T16:14:55.062Z,99134.91
2019-05-02T16:20:07.664Z,99134.91
2019-05-02T16:25:05.891Z,99131.61
2019-05-02T16:30:10.759Z,99127.30
2019-05-02T16:35:16.935Z,99123.31
2019-05-02T16:40:22.078Z,99111.79
2019-05-02T16:45:22.305Z,99114.45
2019-05-02T16:50:27.595Z,99116.44
2019-05-02T16:55:27.977Z,99111.78
2019-05-02T17:00:31.851Z,99116.94
2019-05-02T17:05:33.641Z,99117.73
2019-05-02T17:10:57.145Z,99103.84
2019-05-02T17:15:58.870Z,99109.97
2019-05-02T17:21:01.674Z,99112.04
2019-05-02T17:26:04.140Z,99111.84
2019-05-02T17:31:10.734Z,99120.34
2019-05-02T17:36:09.386Z,99115.96
2019-05-02T17:41:11.864Z,99119.52
2019-05-02T17:46:18.293Z,99120.77
2019-05-02T17:51:28.347Z,99131.77
2019-05-02T17:56:32.579Z,99125.48
2019-05-02T18:01:37.143Z,99131.63
2019-05-02T18:06:38.704Z,99138.83
2019-05-02T18:11:42.295Z,99134.08
2019-05-02T18:16:47.182Z,99137.42
2019-05-02T18:21:47.579Z,99133.98
2019-05-02T18:26:49.150Z,99128.84
2019-05-02T18:31:52.155Z,99136.11
2019-05-02T18:36:57.602Z,99130.38
2019-05-02T18:41:57.387Z,99130.63
2019-05-02T18:46:59.049Z,99123.02
2019-05-02T18:52:01.792Z,99124.57
2019-05-02T18:57:03.668Z,99133.04
2019-05-02T19:02:05.342Z,99129.89
2019-05-02T19:07:07.478Z,99122.59
2019-05-02T19:12:19.409Z,99121.62
2019-05-02T19:17:14.252Z,99114.83
2019-05-02T19:22:17.012Z,99111.92
2019-05-02T19:27:38.462Z,99116.50
2019-05-02T19:32:41.721Z,99117.59
2019-05-02T19:37:47.583Z,99122.38
2019-05-02T19:42:47.028Z,99122.79
2019-05-02T19:47:48.908Z,99127.25
2019-05-02T19:53:00.830Z,99124.00
2019-05-02T19:57:56.627Z,99119.34
2019-05-02T20:02:57.824Z,99122.71
2019-05-02T20:07:59.374Z,99122.43
2019-05-02T20:13:03.185Z,99115.63
2019-05-02T20:18:05.232Z,99108.84
2019-05-02T20:23:15.509Z,99104.89
2019-05-02T20:28:10.341Z,99106.00
2019-05-02T20:33:12.834Z,99110.05
2019-05-02T20:38:14.684Z,99122.47
2019-05-02T20:43:16.240Z,99137.50
2019-05-02T20:48:17.913Z,99151.59
2019-05-02T20:53:28.740Z,99162.84
2019-05-02T20:58:23.131Z,99161.70
2019-05-02T21:03:24.819Z,99163.77
2019-05-02T21:08:52.648Z,99160.30
2019-05-02T21:13:54.188Z,99171.62
2019-05-02T21:18:55.766Z,99162.48
2019-05-02T21:23:57.337Z,99160.70
2019-05-02T21:28:58.916Z,99162.67
2019-05-02T21:34:02.452Z,99170.80
2019-05-02T21:39:09.578Z,99172.45
2019-05-02T21:44:13.076Z,99176.09
2019-05-02T21:49:34.677Z,99168.88
2019-05-02T21:55:04.809Z,99183.78
2019-05-02T22:00:09.366Z,99175.23
2019-05-02T22:05:12.646Z,99185.45
2019-05-02T22:10:14.506Z,99178.63
2019-05-02T22:15:16.051Z,99171.30
2019-05-02T22:20:17.722Z,99160.80
2019-05-02T22:25:19.491Z,99166.16
2019-05-02T22:30:21.943Z,99164.81
2019-05-02T22:35:23.600Z,99166.96
2019-05-02T22:40:25.149Z,99166.27
2019-05-02T22:45:26.696Z,99165.25
2019-05-02T22:50:28.290Z,99167.48
2019-05-02T22:55:31.897Z,99175.49
2019-05-02T23:00:33.520Z,99178.00
2019-05-02T23:05:35.204Z,99179.84
2019-05-02T23:10:36.852Z,99182.09
2019-05-02T23:15:38.531Z,99182.38
2019-05-02T23:20:42.087Z,99175.44
2019-05-02T23:26:08.853Z,99182.31
2019-05-02T23:31:11.439Z,99184.95
2019-05-02T23:36:14.082Z,99177.55
2019-05-02T23:41:15.631Z,99171.16
2019-05-02T23:46:17.193Z,99172.48
2019-05-02T23:51:18.847Z,99168.53
2019-05-02T23:56:22.112Z,99175.89
